createdAt,value
2018-06-09T00:00:27.011Z,0.00
2018-06-09T00:01:26.987Z,0.00
2018-06-09T00:02:26.959Z,0.00
2018-06-09T00:03:26.945Z,0.00
2018-06-09T00:04:26.916Z,0.00
2018-06-09T00:05:26.890Z,0.00
2018-06-09T00:06:26.877Z,0.00
2018-06-09T00:07:26.857Z,0.00
2018-06-09T00:08:26.832Z,0.00
2018-06-09T00:09:26.799Z,0.00
2018-06-09T00:10:26.787Z,0.00
2018-06-09T00:11:26.784Z,0.00
2018-06-09T00:12:26.741Z,0.00
2018-06-09T00:13:26.720Z,0.00
2018-06-09T00:14:26.690Z,0.00
2018-06-09T00:15:26.674Z,0.00
2018-06-09T00:16:26.643Z,0.00
2018-06-09T00:17:26.623Z,0.00
2018-06-09T00:18:26.599Z,0.00
2018-06-09T00:19:26.574Z,0.00
2018-06-09T00:20:26.561Z,0.00
2018-06-09T00:21:26.539Z,0.00
2018-06-09T00:22:26.508Z,0.00
2018-06-09T00:23:26.493Z,0.00
2018-06-09T00:24:26.468Z,0.00
2018-06-09T00:25:26.443Z,0.00
2018-06-09T00:26:26.426Z,0.00
2018-06-09T00:27:26.405Z,0.00
2018-06-09T00:28:26.374Z,0.00
2018-06-09T00:29:26.348Z,0.00
2018-06-09T00:30:26.334Z,0.00
2018-06-09T00:31:26.309Z,0.00
2018-06-09T00:32:26.283Z,0.00
2018-06-09T00:33:26.266Z,0.00
2018-06-09T00:34:26.242Z,0.00
2018-06-09T00:35:26.217Z,0.00
2018-06-09T00:36:26.193Z,0.00
2018-06-09T00:37:26.170Z,0.00
2018-06-09T00:38:26.153Z,0.00
2018-06-09T00:39:26.121Z,0.00
2018-06-09T00:40:26.108Z,0.00
2018-06-09T00:41:26.081Z,0.00
2018-06-09T00:42:26.061Z,0.00
2018-06-09T00:43:26.033Z,0.00
2018-06-09T00:44:26.018Z,0.00
2018-06-09T00:45:25.995Z,0.00
2018-06-09T00:46:25.965Z,0.00
2018-06-09T00:47:25.945Z,0.00
2018-06-09T00:48:25.924Z,0.00
2018-06-09T00:49:25.906Z,0.00
2018-06-09T00:50:25.875Z,0.00
2018-06-09T00:51:25.850Z,0.00
2018-06-09T00:52:25.835Z,0.00
2018-06-09T00:53:25.806Z,0.00
2018-06-09T00:54:25.787Z,0.00
2018-06-09T00:55:25.763Z,0.00
2018-06-09T00:56:25.745Z,0.00
2018-06-09T00:57:25.723Z,0.00
2018-06-09T00:58:25.691Z,0.00
2018-06-09T00:59:25.686Z,0.00
2018-06-09T01:00:25.652Z,0.00
2018-06-09T01:01:25.630Z,0.00
2018-06-09T01:02:25.613Z,0.00
2018-06-09T01:03:25.585Z,0.00
2018-06-09T01:04:25.555Z,0.00
2018-06-09T01:05:25.537Z,0.00
2018-06-09T01:06:25.518Z,0.00
2018-06-09T01:07:25.520Z,0.00
2018-06-09T01:08:25.463Z,0.00
2018-06-09T01:09:25.449Z,0.00
2018-06-09T01:10:25.422Z,0.00
2018-06-09T01:11:25.402Z,0.00
2018-06-09T01:12:25.382Z,0.00
2018-06-09T01:13:25.354Z,0.00
2018-06-09T01:14:25.334Z,0.00
2018-06-09T01:15:25.303Z,0.00
2018-06-09T01:16:25.291Z,0.00
2018-06-09T01:17:25.266Z,0.00
2018-06-09T01:18:25.234Z,0.00
2018-06-09T01:19:25.223Z,0.00
2018-06-09T01:20:25.218Z,0.00
2018-06-09T01:21:25.175Z,0.00
2018-06-09T01:22:25.147Z,0.00
2018-06-09T01:23:25.122Z,0.00
2018-06-09T01:24:25.102Z,0.00
2018-06-09T01:25:25.083Z,0.00
2018-06-09T01:26:25.059Z,0.00
2018-06-09T01:27:25.044Z,0.00
2018-06-09T01:28:25.013Z,0.00
2018-06-09T01:29:24.986Z,0.00
2018-06-09T01:30:24.968Z,0.00
2018-06-09T01:31:24.951Z,0.00
2018-06-09T01:32:24.915Z,0.00
2018-06-09T01:33:24.892Z,0.00
2018-06-09T01:34:24.884Z,0.00
2018-06-09T01:35:24.852Z,0.00
2018-06-09T01:36:24.827Z,0.00
2018-06-09T01:37:24.817Z,0.00
2018-06-09T01:38:24.776Z,0.00
2018-06-09T01:39:24.762Z,0.00
2018-06-09T01:40:24.737Z,0.00
2018-06-09T01:41:24.713Z,0.00
2018-06-09T01:42:24.693Z,0.00
2018-06-09T01:43:24.669Z,0.00
2018-06-09T01:44:24.646Z,0.00
2018-06-09T01:45:24.621Z,0.00
2018-06-09T01:46:24.595Z,0.00
2018-06-09T01:47:24.570Z,0.00
2018-06-09T01:48:24.559Z,0.00
2018-06-09T01:49:24.531Z,0.00
2018-06-09T01:50:24.501Z,0.00
2018-06-09T01:51:24.479Z,0.00
2018-06-09T01:52:24.461Z,0.00
2018-06-09T01:53:24.434Z,0.00
2018-06-09T01:54:24.420Z,0.00
2018-06-09T01:55:24.386Z,0.00
2018-06-09T01:56:24.372Z,0.00
2018-06-09T01:57:24.345Z,0.00
2018-06-09T01:58:24.326Z,0.00
2018-06-09T01:59:24.302Z,0.00
2018-06-09T02:00:24.274Z,0.00
2018-06-09T02:01:24.255Z,0.00
2018-06-09T02:02:24.231Z,0.00
2018-06-09T02:03:24.212Z,0.00
2018-06-09T02:04:24.190Z,0.00
2018-06-09T02:05:24.156Z,0.00
2018-06-09T02:06:24.141Z,0.00
2018-06-09T02:07:24.118Z,0.00
2018-06-09T02:08:24.094Z,0.00
2018-06-09T02:09:24.066Z,0.00
2018-06-09T02:10:24.040Z,0.00
2018-06-09T02:11:24.026Z,0.00
2018-06-09T02:12:24.009Z,0.00
2018-06-09T02:13:23.971Z,0.00
2018-06-09T02:14:23.958Z,0.00
2018-06-09T02:15:23.925Z,0.00
2018-06-09T02:16:23.916Z,0.00
2018-06-09T02:17:23.878Z,0.00
2018-06-09T02:18:23.870Z,0.00
2018-06-09T02:19:23.835Z,0.00
2018-06-09T02:20:23.822Z,0.00
2018-06-09T02:21:23.791Z,0.00
2018-06-09T02:22:23.774Z,0.00
2018-06-09T02:23:23.743Z,0.00
2018-06-09T02:24:23.725Z,0.00
2018-06-09T02:25:23.700Z,0.00
2018-06-09T02:26:23.686Z,0.00
2018-06-09T02:27:23.650Z,0.00
2018-06-09T02:28:23.637Z,0.00
2018-06-09T02:29:23.608Z,0.00
2018-06-09T02:30:23.590Z,0.00
2018-06-09T02:31:23.577Z,0.00
2018-06-09T02:32:23.556Z,0.00
2018-06-09T02:33:23.514Z,0.00
2018-06-09T02:34:23.497Z,0.00
2018-06-09T02:35:23.470Z,0.00
2018-06-09T02:36:23.448Z,0.00
2018-06-09T02:37:23.420Z,0.00
2018-06-09T02:38:23.405Z,0.00
2018-06-09T02:39:23.374Z,0.00
2018-06-09T02:40:23.359Z,0.00
2018-06-09T02:41:23.336Z,0.00
2018-06-09T02:42:23.309Z,0.00
2018-06-09T02:43:23.282Z,0.00
2018-06-09T02:44:23.266Z,0.00
2018-06-09T02:45:23.248Z,0.00
2018-06-09T02:46:23.216Z,0.00
2018-06-09T02:47:23.188Z,0.00
2018-06-09T02:48:23.174Z,0.00
2018-06-09T02:49:23.145Z,0.00
2018-06-09T02:50:23.120Z,0.00
2018-06-09T02:51:23.097Z,0.00
2018-06-09T02:52:23.083Z,4.00
2018-06-09T02:53:23.056Z,4.00
2018-06-09T02:54:23.024Z,0.00
2018-06-09T02:55:23.004Z,4.00
2018-06-09T02:56:22.983Z,4.00
2018-06-09T02:57:22.960Z,0.00
2018-06-09T02:58:22.941Z,4.00
2018-06-09T02:59:22.916Z,4.00
2018-06-09T03:00:22.887Z,4.00
2018-06-09T03:01:22.874Z,4.00
2018-06-09T03:02:22.881Z,4.00
2018-06-09T03:03:22.864Z,4.00
2018-06-09T03:04:22.853Z,4.00
2018-06-09T03:05:22.771Z,4.00
2018-06-09T03:06:22.749Z,8.00
2018-06-09T03:07:22.730Z,8.00
2018-06-09T03:08:22.696Z,8.00
2018-06-09T03:09:22.673Z,12.00
2018-06-09T03:10:22.662Z,12.00
2018-06-09T03:11:22.632Z,12.00
2018-06-09T03:12:22.608Z,12.00
2018-06-09T03:13:22.585Z,12.00
2018-06-09T03:14:22.557Z,16.00
2018-06-09T03:15:22.535Z,16.00
2018-06-09T03:16:22.516Z,16.00
2018-06-09T03:17:22.485Z,20.00
2018-06-09T03:18:22.474Z,20.00
2018-06-09T03:19:22.450Z,16.00
2018-06-09T03:20:22.414Z,20.00
2018-06-09T03:21:22.389Z,20.00
2018-06-09T03:22:22.378Z,20.00
2018-06-09T03:23:22.343Z,24.00
2018-06-09T03:24:22.329Z,24.00
2018-06-09T03:25:22.299Z,24.00
2018-06-09T03:26:22.279Z,28.00
2018-06-09T03:27:22.254Z,28.00
2018-06-09T03:28:22.233Z,32.00
2018-06-09T03:29:22.216Z,32.00
2018-06-09T03:30:22.183Z,32.00
2018-06-09T03:31:22.162Z,36.00
2018-06-09T03:32:22.178Z,36.00
2018-06-09T03:33:22.126Z,40.00
2018-06-09T03:34:22.088Z,44.00
2018-06-09T03:35:22.071Z,44.00
2018-06-09T03:36:22.045Z,48.00
2018-06-09T03:37:22.017Z,52.00
2018-06-09T03:38:21.997Z,52.00
2018-06-09T03:39:21.991Z,56.00
2018-06-09T03:40:21.952Z,56.00
2018-06-09T03:41:21.925Z,56.00
2018-06-09T03:42:21.912Z,60.00
2018-06-09T03:43:21.905Z,60.00
2018-06-09T03:44:21.862Z,60.00
2018-06-09T03:45:21.830Z,56.00
2018-06-09T03:46:21.811Z,60.00
2018-06-09T03:47:21.785Z,60.00
2018-06-09T03:48:21.763Z,56.00
2018-06-09T03:49:21.735Z,56.00
2018-06-09T03:50:21.719Z,60.00
2018-06-09T03:51:21.689Z,60.00
2018-06-09T03:52:21.673Z,64.00
2018-06-09T03:53:21.645Z,72.00
2018-06-09T03:54:21.619Z,76.00
2018-06-09T03:55:21.593Z,80.00
2018-06-09T03:56:21.587Z,84.00
2018-06-09T03:57:21.555Z,84.00
2018-06-09T03:58:21.521Z,92.00
2018-06-09T03:59:21.504Z,92.00
2018-06-09T04:00:21.484Z,96.00
2018-06-09T04:01:21.466Z,100.00
2018-06-09T04:02:21.435Z,100.00
2018-06-09T04:03:21.413Z,104.00
2018-06-09T04:04:21.381Z,108.00
2018-06-09T04:05:21.357Z,112.00
2018-06-09T04:06:21.346Z,116.00
2018-06-09T04:07:21.319Z,120.00
2018-06-09T04:08:21.290Z,128.00
2018-06-09T04:09:21.272Z,136.00
2018-06-09T04:10:21.244Z,140.00
2018-06-09T04:11:21.231Z,144.00
2018-06-09T04:12:21.196Z,148.00
2018-06-09T04:13:21.181Z,152.00
2018-06-09T04:14:21.152Z,156.00
2018-06-09T04:15:21.125Z,168.00
2018-06-09T04:16:21.105Z,180.00
2018-06-09T04:17:21.080Z,192.00
2018-06-09T04:18:21.057Z,204.00
2018-06-09T04:19:21.028Z,216.00
2018-06-09T04:20:21.014Z,224.00
2018-06-09T04:21:20.990Z,240.00
2018-06-09T04:22:20.960Z,248.00
2018-06-09T04:23:20.945Z,260.00
2018-06-09T04:24:20.919Z,268.00
2018-06-09T04:25:20.895Z,276.00
2018-06-09T04:26:20.868Z,292.00
2018-06-09T04:27:20.888Z,300.00
2018-06-09T04:28:20.856Z,308.00
2018-06-09T04:29:20.800Z,320.00
2018-06-09T04:30:20.781Z,336.00
2018-06-09T04:31:20.752Z,352.00
2018-06-09T04:32:20.729Z,368.00
2018-06-09T04:33:20.720Z,392.00
2018-06-09T04:34:20.676Z,408.00
2018-06-09T04:35:20.655Z,424.00
2018-06-09T04:36:20.639Z,440.00
2018-06-09T04:37:20.605Z,448.00
2018-06-09T04:38:20.590Z,460.00
2018-06-09T04:39:20.567Z,476.00
2018-06-09T04:40:20.537Z,492.00
2018-06-09T04:41:20.513Z,500.00
2018-06-09T04:42:20.494Z,516.00
2018-06-09T04:43:20.472Z,528.00
2018-06-09T04:44:20.449Z,548.00
2018-06-09T04:45:20.424Z,572.00
2018-06-09T04:46:20.409Z,596.00
2018-06-09T04:47:20.380Z,624.00
2018-06-09T04:48:20.359Z,648.00
2018-06-09T04:49:20.321Z,664.00
2018-06-09T04:50:20.307Z,688.00
2018-06-09T04:51:20.279Z,708.00
2018-06-09T04:52:20.269Z,724.00
2018-06-09T04:53:20.241Z,740.00
2018-06-09T04:54:20.205Z,756.00
2018-06-09T04:55:20.194Z,764.00
2018-06-09T04:56:20.160Z,768.00
2018-06-09T04:57:20.151Z,756.00
2018-06-09T04:58:20.112Z,732.00
2018-06-09T04:59:20.150Z,696.00
2018-06-09T05:00:20.064Z,668.00
2018-06-09T05:01:20.040Z,652.00
2018-06-09T05:02:20.025Z,636.00
2018-06-09T05:03:20.007Z,636.00
2018-06-09T05:04:19.973Z,644.00
2018-06-09T05:05:19.949Z,668.00
2018-06-09T05:06:19.938Z,692.00
2018-06-09T05:07:19.909Z,712.00
2018-06-09T05:08:19.880Z,732.00
2018-06-09T05:09:19.862Z,744.00
2018-06-09T05:10:19.850Z,752.00
2018-06-09T05:11:19.814Z,756.00
2018-06-09T05:12:19.797Z,760.00
2018-06-09T05:13:19.762Z,772.00
2018-06-09T05:14:19.771Z,788.00
2018-06-09T05:15:19.716Z,812.00
2018-06-09T05:16:19.700Z,852.00
2018-06-09T05:17:20.436Z,896.00
2018-06-09T05:18:19.651Z,948.00
2018-06-09T05:19:19.627Z,1004.00
2018-06-09T05:20:19.603Z,1064.00
2018-06-09T05:21:19.578Z,1116.00
2018-06-09T05:22:19.552Z,1156.00
2018-06-09T05:23:19.526Z,1196.00
2018-06-09T05:24:19.511Z,1240.00
2018-06-09T05:25:19.492Z,1288.00
2018-06-09T05:26:19.476Z,1352.00
2018-06-09T05:27:19.435Z,1444.00
2018-06-09T05:28:19.415Z,1536.00
2018-06-09T05:29:19.395Z,1600.00
2018-06-09T05:30:19.410Z,1628.00
2018-06-09T05:31:19.339Z,1672.00
2018-06-09T05:32:19.316Z,1684.00
2018-06-09T05:33:19.303Z,1668.00
2018-06-09T05:34:19.275Z,1636.00
2018-06-09T05:35:19.245Z,1680.00
2018-06-09T05:36:19.225Z,1744.00
2018-06-09T05:37:19.215Z,1828.00
2018-06-09T05:38:19.177Z,1916.00
2018-06-09T05:39:19.157Z,1984.00
2018-06-09T05:40:19.225Z,2044.00
2018-06-09T05:41:19.108Z,2032.00
2018-06-09T05:42:19.092Z,2004.00
2018-06-09T05:43:19.066Z,1980.00
2018-06-09T05:44:19.050Z,1976.00
2018-06-09T05:45:19.025Z,1992.00
2018-06-09T05:46:18.996Z,2000.00
2018-06-09T05:47:18.970Z,2020.00
2018-06-09T05:48:18.950Z,2068.00
2018-06-09T05:49:18.926Z,2108.00
2018-06-09T05:50:18.901Z,2188.00
2018-06-09T05:51:18.885Z,2260.00
2018-06-09T05:52:18.853Z,2328.00
2018-06-09T05:53:18.828Z,2308.00
2018-06-09T05:54:18.813Z,2276.00
2018-06-09T05:55:18.782Z,2244.00
2018-06-09T05:56:18.768Z,2200.00
2018-06-09T05:57:18.750Z,2148.00
2018-06-09T05:58:18.714Z,2092.00
2018-06-09T05:59:18.700Z,2040.00
2018-06-09T06:00:18.669Z,1980.00
2018-06-09T06:01:18.647Z,1928.00
2018-06-09T06:02:18.628Z,1892.00
2018-06-09T06:03:18.605Z,1860.00
2018-06-09T06:04:18.581Z,1808.00
2018-06-09T06:05:18.558Z,1756.00
2018-06-09T06:06:18.544Z,1712.00
2018-06-09T06:07:18.516Z,1684.00
2018-06-09T06:08:18.496Z,1668.00
2018-06-09T06:09:18.463Z,1668.00
2018-06-09T06:10:18.444Z,1676.00
2018-06-09T06:11:18.418Z,1684.00
2018-06-09T06:12:18.399Z,1700.00
2018-06-09T06:13:18.373Z,1728.00
2018-06-09T06:14:18.357Z,1756.00
2018-06-09T06:15:18.324Z,1784.00
2018-06-09T06:16:18.312Z,1824.00
2018-06-09T06:17:18.285Z,1864.00
2018-06-09T06:18:18.259Z,1920.00
2018-06-09T06:19:18.239Z,1972.00
2018-06-09T06:20:18.214Z,2008.00
2018-06-09T06:21:18.219Z,2024.00
2018-06-09T06:22:18.165Z,2028.00
2018-06-09T06:23:18.151Z,2020.00
2018-06-09T06:24:18.120Z,1988.00
2018-06-09T06:25:18.101Z,1972.00
2018-06-09T06:26:18.078Z,1968.00
2018-06-09T06:27:18.054Z,1980.00
2018-06-09T06:28:18.042Z,2012.00
2018-06-09T06:29:18.016Z,2068.00
2018-06-09T06:30:17.987Z,2120.00
2018-06-09T06:31:17.968Z,2164.00
2018-06-09T06:32:17.944Z,2224.00
2018-06-09T06:33:17.920Z,2268.00
2018-06-09T06:34:17.902Z,2304.00
2018-06-09T06:35:17.875Z,2324.00
2018-06-09T06:36:17.855Z,2320.00
2018-06-09T06:37:17.829Z,2280.00
2018-06-09T06:38:17.812Z,2236.00
2018-06-09T06:39:17.788Z,2180.00
2018-06-09T06:40:17.767Z,2116.00
2018-06-09T06:41:17.738Z,2044.00
2018-06-09T06:42:17.720Z,1984.00
2018-06-09T06:43:17.705Z,1956.00
2018-06-09T06:44:17.670Z,1944.00
2018-06-09T06:45:17.646Z,1960.00
2018-06-09T06:46:17.633Z,1984.00
2018-06-09T06:47:17.626Z,2020.00
2018-06-09T06:48:17.582Z,2068.00
2018-06-09T06:49:17.567Z,2088.00
2018-06-09T06:50:17.581Z,2120.00
2018-06-09T06:51:17.512Z,2164.00
2018-06-09T06:52:17.496Z,2208.00
2018-06-09T06:53:17.477Z,2240.00
2018-06-09T06:54:17.446Z,2288.00
2018-06-09T06:55:17.426Z,2264.00
2018-06-09T06:56:17.415Z,2324.00
2018-06-09T06:57:17.379Z,2384.00
2018-06-09T06:58:17.371Z,2560.00
2018-06-09T06:59:17.333Z,2644.00
2018-06-09T07:00:17.334Z,2740.00
2018-06-09T07:01:17.291Z,2520.00
2018-06-09T07:02:17.279Z,2524.00
2018-06-09T07:03:17.252Z,2592.00
2018-06-09T07:04:17.232Z,2564.00
2018-06-09T07:05:17.203Z,2536.00
2018-06-09T07:06:17.189Z,2524.00
2018-06-09T07:07:17.166Z,2516.00
2018-06-09T07:08:17.139Z,2556.00
2018-06-09T07:09:17.110Z,2652.00
2018-06-09T07:10:17.105Z,2632.00
2018-06-09T07:11:17.076Z,2692.00
2018-06-09T07:12:17.046Z,2752.00
2018-06-09T07:13:17.024Z,2860.00
2018-06-09T07:14:17.013Z,2892.00
2018-06-09T07:15:16.980Z,2888.00
2018-06-09T07:16:16.992Z,2872.00
2018-06-09T07:17:16.933Z,2868.00
2018-06-09T07:18:16.919Z,2960.00
2018-06-09T07:19:16.928Z,3020.00
2018-06-09T07:20:16.876Z,3220.00
2018-06-09T07:21:16.845Z,3420.00
2018-06-09T07:22:16.836Z,3352.00
2018-06-09T07:23:16.801Z,3444.00
2018-06-09T07:24:16.794Z,3424.00
2018-06-09T07:25:16.757Z,3436.00
2018-06-09T07:26:16.741Z,3412.00
2018-06-09T07:27:16.720Z,3316.00
2018-06-09T07:28:16.704Z,3144.00
2018-06-09T07:29:16.673Z,3096.00
2018-06-09T07:30:16.652Z,2976.00
2018-06-09T07:31:16.624Z,2640.00
2018-06-09T07:32:16.608Z,2616.00
2018-06-09T07:33:16.591Z,2636.00
2018-06-09T07:34:16.558Z,2636.00
2018-06-09T07:35:16.543Z,2940.00
2018-06-09T07:36:16.517Z,2964.00
2018-06-09T07:37:16.498Z,2916.00
2018-06-09T07:38:16.482Z,2900.00
2018-06-09T07:39:16.450Z,2816.00
2018-06-09T07:40:16.435Z,2760.00
2018-06-09T07:41:16.411Z,2768.00
2018-06-09T07:42:16.383Z,2696.00
2018-06-09T07:43:16.358Z,2816.00
2018-06-09T07:44:16.345Z,2880.00
2018-06-09T07:45:16.338Z,2924.00
2018-06-09T07:46:16.297Z,2908.00
2018-06-09T07:47:16.280Z,2872.00
2018-06-09T07:48:16.250Z,2840.00
2018-06-09T07:49:16.228Z,2848.00
2018-06-09T07:50:16.215Z,2916.00
2018-06-09T07:51:16.202Z,2928.00
2018-06-09T07:52:16.169Z,2928.00
2018-06-09T07:53:16.141Z,2820.00
2018-06-09T07:54:16.126Z,2792.00
2018-06-09T07:55:16.106Z,2728.00
2018-06-09T07:56:16.082Z,2664.00
2018-06-09T07:57:16.058Z,2592.00
2018-06-09T07:58:16.048Z,2660.00
2018-06-09T07:59:16.037Z,2676.00
2018-06-09T08:00:15.985Z,2692.00
2018-06-09T08:01:15.964Z,2668.00
2018-06-09T08:02:15.950Z,2652.00
2018-06-09T08:03:15.919Z,2588.00
2018-06-09T08:04:15.908Z,2648.00
2018-06-09T08:05:15.880Z,2584.00
2018-06-09T08:06:15.864Z,2584.00
2018-06-09T08:07:15.833Z,2616.00
2018-06-09T08:08:15.815Z,2784.00
2018-06-09T08:09:15.792Z,2908.00
2018-06-09T08:10:15.773Z,3056.00
2018-06-09T08:11:15.749Z,3116.00
2018-06-09T08:12:15.724Z,3128.00
2018-06-09T08:13:15.709Z,3112.00
2018-06-09T08:14:15.688Z,3192.00
2018-06-09T08:15:15.658Z,3276.00
2018-06-09T08:16:15.646Z,3384.00
2018-06-09T08:17:15.622Z,3468.00
2018-06-09T08:18:15.598Z,3548.00
2018-06-09T08:19:15.573Z,3636.00
2018-06-09T08:20:15.562Z,3676.00
2018-06-09T08:21:15.533Z,3496.00
2018-06-09T08:22:15.514Z,3452.00
2018-06-09T08:23:15.496Z,3440.00
2018-06-09T08:24:15.479Z,3432.00
2018-06-09T08:25:15.454Z,3400.00
2018-06-09T08:26:15.433Z,3320.00
2018-06-09T08:27:15.419Z,3320.00
2018-06-09T08:28:15.382Z,3316.00
2018-06-09T08:29:15.366Z,3288.00
2018-06-09T08:30:15.345Z,3288.00
2018-06-09T08:31:15.333Z,3376.00
2018-06-09T08:32:15.311Z,3380.00
2018-06-09T08:33:15.280Z,3320.00
2018-06-09T08:34:15.263Z,3188.00
2018-06-09T08:35:15.243Z,3140.00
2018-06-09T08:36:15.252Z,3112.00
2018-06-09T08:37:15.201Z,3144.00
2018-06-09T08:38:15.179Z,3140.00
2018-06-09T08:39:15.167Z,3312.00
2018-06-09T08:40:15.136Z,3024.00
2018-06-09T08:41:15.112Z,3056.00
2018-06-09T08:42:15.100Z,3104.00
2018-06-09T08:43:15.076Z,3268.00
2018-06-09T08:44:15.055Z,3356.00
2018-06-09T08:45:15.037Z,3140.00
2018-06-09T08:46:15.088Z,3024.00
2018-06-09T08:47:14.999Z,3072.00
2018-06-09T08:48:14.976Z,3428.00
2018-06-09T08:49:14.951Z,3036.00
2018-06-09T08:50:14.948Z,3016.00
2018-06-09T08:51:14.911Z,3024.00
2018-06-09T08:52:14.887Z,3052.00
2018-06-09T08:53:14.867Z,3232.00
2018-06-09T08:54:14.852Z,3440.00
2018-06-09T08:55:14.833Z,3612.00
2018-06-09T08:56:14.802Z,3668.00
2018-06-09T08:57:14.786Z,3696.00
2018-06-09T08:58:14.769Z,3740.00
2018-06-09T08:59:14.751Z,3708.00
2018-06-09T09:00:14.727Z,3744.00
2018-06-09T09:01:14.706Z,4004.00
2018-06-09T09:02:14.682Z,3720.00
2018-06-09T09:03:14.683Z,4236.00
2018-06-09T09:04:14.647Z,4112.00
2018-06-09T09:05:14.632Z,4080.00
2018-06-09T09:06:14.605Z,4092.00
2018-06-09T09:07:14.581Z,4076.00
2018-06-09T09:08:14.564Z,4024.00
2018-06-09T09:09:14.545Z,3980.00
2018-06-09T09:10:14.522Z,3936.00
2018-06-09T09:11:14.497Z,3496.00
2018-06-09T09:12:14.488Z,3668.00
2018-06-09T09:13:14.464Z,3292.00
2018-06-09T09:14:14.440Z,3252.00
2018-06-09T09:15:14.418Z,3624.00
2018-06-09T09:16:14.402Z,3876.00
2018-06-09T09:17:14.385Z,3444.00
2018-06-09T09:18:14.362Z,3424.00
2018-06-09T09:19:14.339Z,3632.00
2018-06-09T09:20:14.339Z,3712.00
2018-06-09T09:21:14.302Z,3652.00
2018-06-09T09:22:14.280Z,3920.00
2018-06-09T09:23:14.256Z,4048.00
2018-06-09T09:24:14.297Z,4092.00
2018-06-09T09:25:14.218Z,4100.00
2018-06-09T09:26:14.201Z,4204.00
2018-06-09T09:27:14.187Z,4064.00
2018-06-09T09:28:14.157Z,4180.00
2018-06-09T09:29:14.141Z,3756.00
2018-06-09T09:30:14.140Z,3840.00
2018-06-09T09:31:14.103Z,4580.00
2018-06-09T09:32:14.162Z,4068.00
2018-06-09T09:33:14.060Z,4560.00
2018-06-09T09:34:14.044Z,4740.00
2018-06-09T09:35:14.015Z,4000.00
2018-06-09T09:36:14.003Z,3972.00
2018-06-09T09:37:13.981Z,4528.00
2018-06-09T09:38:13.960Z,3972.00
2018-06-09T09:39:13.945Z,4040.00
2018-06-09T09:40:13.922Z,4368.00
2018-06-09T09:41:13.902Z,4456.00
2018-06-09T09:42:13.878Z,4124.00
2018-06-09T09:43:13.861Z,4336.00
2018-06-09T09:44:13.841Z,4176.00
2018-06-09T09:45:13.824Z,4184.00
2018-06-09T09:46:13.802Z,4244.00
2018-06-09T09:47:13.780Z,4524.00
2018-06-09T09:48:13.762Z,5156.00
2018-06-09T09:49:13.742Z,4776.00
2018-06-09T09:50:13.730Z,4720.00
2018-06-09T09:51:13.712Z,4296.00
2018-06-09T09:52:13.682Z,4208.00
2018-06-09T09:53:13.664Z,4140.00
2018-06-09T09:54:13.662Z,4132.00
2018-06-09T09:55:13.631Z,4160.00
2018-06-09T09:56:13.607Z,4236.00
2018-06-09T09:57:13.590Z,4316.00
2018-06-09T09:58:13.570Z,4376.00
2018-06-09T09:59:13.553Z,4380.00
2018-06-09T10:00:13.526Z,4412.00
2018-06-09T10:01:13.517Z,4440.00
2018-06-09T10:02:13.494Z,4664.00
2018-06-09T10:03:13.474Z,4660.00
2018-06-09T10:04:13.451Z,4600.00
2018-06-09T10:05:13.438Z,4660.00
2018-06-09T10:06:13.422Z,4548.00
2018-06-09T10:07:13.392Z,4584.00
2018-06-09T10:08:13.383Z,4584.00
2018-06-09T10:09:13.363Z,4372.00
2018-06-09T10:10:13.346Z,4572.00
2018-06-09T10:11:13.319Z,4332.00
2018-06-09T10:12:13.305Z,4356.00
2018-06-09T10:13:13.285Z,4272.00
2018-06-09T10:14:13.270Z,4284.00
2018-06-09T10:15:13.241Z,4312.00
2018-06-09T10:16:13.231Z,4212.00
2018-06-09T10:17:13.211Z,4168.00
2018-06-09T10:18:13.185Z,4136.00
2018-06-09T10:19:13.182Z,4128.00
2018-06-09T10:20:13.156Z,4156.00
2018-06-09T10:21:13.137Z,4196.00
2018-06-09T10:22:13.117Z,4208.00
2018-06-09T10:23:13.100Z,4264.00
2018-06-09T10:24:13.074Z,4344.00
2018-06-09T10:25:13.055Z,4404.00
2018-06-09T10:26:13.085Z,4440.00
2018-06-09T10:27:13.022Z,4488.00
2018-06-09T10:28:13.002Z,4552.00
2018-06-09T10:29:12.983Z,4604.00
2018-06-09T10:30:12.972Z,4632.00
2018-06-09T10:31:12.953Z,4660.00
2018-06-09T10:32:12.926Z,4712.00
2018-06-09T10:33:12.914Z,4728.00
2018-06-09T10:34:12.896Z,4776.00
2018-06-09T10:35:12.873Z,4832.00
2018-06-09T10:36:12.897Z,4888.00
2018-06-09T10:37:12.886Z,4936.00
2018-06-09T10:38:12.827Z,4996.00
2018-06-09T10:39:12.831Z,5036.00
2018-06-09T10:40:12.781Z,5084.00
2018-06-09T10:41:12.759Z,5164.00
2018-06-09T10:42:12.746Z,5196.00
2018-06-09T10:43:12.725Z,5260.00
2018-06-09T10:44:12.711Z,5320.00
2018-06-09T10:45:12.717Z,5388.00
2018-06-09T10:46:12.679Z,5492.00
2018-06-09T10:47:12.653Z,5536.00
2018-06-09T10:48:12.650Z,5492.00
2018-06-09T10:49:12.615Z,5424.00
2018-06-09T10:50:12.608Z,5332.00
2018-06-09T10:51:12.582Z,5340.00
2018-06-09T10:52:12.562Z,5480.00
2018-06-09T10:53:12.543Z,5748.00
2018-06-09T10:54:12.537Z,5704.00
2018-06-09T10:55:12.507Z,5720.00
2018-06-09T10:56:12.492Z,5704.00
2018-06-09T10:57:12.471Z,5620.00
2018-06-09T10:58:12.471Z,5480.00
2018-06-09T10:59:12.434Z,5452.00
2018-06-09T11:00:12.428Z,5304.00
2018-06-09T11:01:12.401Z,5196.00
2018-06-09T11:02:12.386Z,4972.00
2018-06-09T11:03:12.363Z,4896.00
2018-06-09T11:04:12.349Z,4820.00
2018-06-09T11:05:12.327Z,4916.00
2018-06-09T11:06:12.313Z,4884.00
2018-06-09T11:07:12.290Z,4752.00
2018-06-09T11:08:12.278Z,4556.00
2018-06-09T11:09:12.254Z,4448.00
2018-06-09T11:10:12.243Z,4304.00
2018-06-09T11:11:12.216Z,4228.00
2018-06-09T11:12:12.208Z,4188.00
2018-06-09T11:13:12.190Z,4172.00
2018-06-09T11:14:12.163Z,4132.00
2018-06-09T11:15:12.158Z,4092.00
2018-06-09T11:16:12.132Z,4088.00
2018-06-09T11:17:12.116Z,4108.00
2018-06-09T11:18:12.099Z,3768.00
2018-06-09T11:19:12.074Z,4044.00
2018-06-09T11:20:12.063Z,4052.00
2018-06-09T11:21:12.047Z,4080.00
2018-06-09T11:22:12.020Z,4060.00
2018-06-09T11:23:11.999Z,3896.00
2018-06-09T11:24:11.990Z,3976.00
2018-06-09T11:25:11.974Z,3992.00
2018-06-09T11:26:11.946Z,4040.00
2018-06-09T11:27:11.932Z,4108.00
2018-06-09T11:28:11.921Z,4120.00
2018-06-09T11:29:11.892Z,4168.00
2018-06-09T11:30:11.883Z,4136.00
2018-06-09T11:31:11.864Z,4104.00
2018-06-09T11:32:11.861Z,4048.00
2018-06-09T11:33:11.823Z,3992.00
2018-06-09T11:34:11.807Z,3984.00
2018-06-09T11:35:11.795Z,3944.00
2018-06-09T11:36:11.767Z,3928.00
2018-06-09T11:37:11.757Z,3948.00
2018-06-09T11:38:11.733Z,3912.00
2018-06-09T11:39:11.723Z,3836.00
2018-06-09T11:40:11.698Z,3712.00
2018-06-09T11:41:11.685Z,3704.00
2018-06-09T11:42:11.661Z,3736.00
2018-06-09T11:43:11.642Z,3572.00
2018-06-09T11:44:11.637Z,3612.00
2018-06-09T11:45:11.610Z,3608.00
2018-06-09T11:46:11.594Z,3808.00
2018-06-09T11:47:11.652Z,4028.00
2018-06-09T11:48:11.560Z,5356.00
2018-06-09T11:49:11.538Z,6872.00
2018-06-09T11:50:11.527Z,6976.00
2018-06-09T11:51:11.501Z,6568.00
2018-06-09T11:52:11.500Z,6244.00
2018-06-09T11:53:11.467Z,5780.00
2018-06-09T11:54:11.458Z,5476.00
2018-06-09T11:55:11.442Z,5192.00
2018-06-09T11:56:11.431Z,4924.00
2018-06-09T11:57:11.409Z,4720.00
2018-06-09T11:58:11.393Z,4488.00
2018-06-09T11:59:11.378Z,4544.00
2018-06-09T12:00:11.357Z,4608.00
2018-06-09T12:01:11.338Z,4732.00
2018-06-09T12:02:11.331Z,5028.00
2018-06-09T12:03:11.305Z,5256.00
2018-06-09T12:04:11.297Z,5268.00
2018-06-09T12:05:11.283Z,5356.00
2018-06-09T12:06:11.265Z,5472.00
2018-06-09T12:07:11.250Z,5472.00
2018-06-09T12:08:11.242Z,5292.00
2018-06-09T12:09:11.219Z,5244.00
2018-06-09T12:10:11.195Z,4360.00
2018-06-09T12:11:11.189Z,5624.00
2018-06-09T12:12:11.175Z,5956.00
2018-06-09T12:13:11.154Z,5136.00
2018-06-09T12:14:11.137Z,5292.00
2018-06-09T12:15:11.125Z,5548.00
2018-06-09T12:16:11.104Z,5916.00
2018-06-09T12:17:11.137Z,5256.00
2018-06-09T12:18:11.070Z,6892.00
2018-06-09T12:19:11.059Z,5856.00
2018-06-09T12:20:11.043Z,5456.00
2018-06-09T12:21:11.028Z,5844.00
2018-06-09T12:22:11.005Z,6792.00
2018-06-09T12:23:10.988Z,6416.00
2018-06-09T12:24:10.983Z,6560.00
2018-06-09T12:25:10.955Z,6612.00
2018-06-09T12:26:10.949Z,5624.00
2018-06-09T12:27:10.928Z,5928.00
2018-06-09T12:28:10.929Z,6460.00